createdAt,value
2023-04-14T00:00:54.082Z,23.60
2023-04-14T00:03:22.182Z,23.50
2023-04-14T00:05:50.320Z,23.80
2023-04-14T00:08:18.235Z,27.40
2023-04-14T00:10:46.125Z,25.70
2023-04-14T00:13:14.049Z,25.10
2023-04-14T00:15:42.780Z,29.60
2023-04-14T00:18:10.893Z,22.00
2023-04-14T00:20:38.921Z,26.40
2023-04-14T00:23:06.817Z,25.80
2023-04-14T00:25:34.671Z,25.60
2023-04-14T00:28:02.633Z,33.70
2023-04-14T00:30:30.917Z,28.30
2023-04-14T00:32:58.922Z,26.10
2023-04-14T00:35:26.918Z,27.30
2023-04-14T00:37:57.047Z,25.00
2023-04-14T00:40:25.314Z,24.30
2023-04-14T00:42:53.287Z,27.30
2023-04-14T00:45:21.259Z,26.80
2023-04-14T00:47:50.856Z,21.50
2023-04-14T00:50:21.074Z,22.60
2023-04-14T00:52:50.698Z,18.00
2023-04-14T00:55:22.537Z,17.80
2023-04-14T00:57:51.160Z,21.40
2023-04-14T01:00:19.888Z,17.50
2023-04-14T01:02:47.953Z,22.10
2023-04-14T01:05:16.320Z,19.40
2023-04-14T01:07:45.620Z,20.80
2023-04-14T01:10:13.680Z,22.70
2023-04-14T01:12:57.602Z,26.70
2023-04-14T01:15:51.996Z,26.90
2023-04-14T01:18:36.313Z,23.70
2023-04-14T01:21:13.405Z,22.10
2023-04-14T01:23:50.213Z,23.60
2023-04-14T01:26:26.482Z,30.30
2023-04-14T01:29:24.580Z,22.60
2023-04-14T01:32:10.343Z,26.30
2023-04-14T01:34:50.699Z,22.90
2023-04-14T01:37:30.383Z,25.20
2023-04-14T01:40:03.774Z,27.20
2023-04-14T01:45:16.522Z,23.70
2023-04-14T01:47:45.477Z,23.30
2023-04-14T01:50:15.107Z,21.20
2023-04-14T01:52:47.961Z,20.50
2023-04-14T01:55:19.458Z,26.90
2023-04-14T01:57:51.235Z,23.30
2023-04-14T02:00:20.743Z,26.40
2023-04-14T02:02:52.455Z,23.10
2023-04-14T02:05:22.566Z,24.10
2023-04-14T02:07:53.265Z,22.10
2023-04-14T02:10:22.326Z,22.40
2023-04-14T02:12:52.986Z,21.90
2023-04-14T02:15:23.512Z,19.80
2023-04-14T02:17:53.060Z,24.60
2023-04-14T02:20:22.275Z,20.80
2023-04-14T02:22:50.316Z,18.50
2023-04-14T02:25:18.271Z,18.30
2023-04-14T02:27:52.543Z,20.20
2023-04-14T02:30:33.151Z,17.40
2023-04-14T02:33:05.637Z,16.40
2023-04-14T02:35:46.321Z,19.10
2023-04-14T02:38:21.981Z,18.30
2023-04-14T02:40:50.838Z,14.20
2023-04-14T02:43:32.391Z,17.30
2023-04-14T02:46:05.613Z,18.00
2023-04-14T02:48:35.072Z,20.90
2023-04-14T02:51:06.069Z,18.20
2023-04-14T02:53:34.927Z,19.70
2023-04-14T02:56:27.205Z,22.20
2023-04-14T02:58:58.170Z,22.20
2023-04-14T03:01:27.890Z,18.70
2023-04-14T03:03:57.953Z,25.90
2023-04-14T03:06:28.923Z,17.80
2023-04-14T03:08:58.315Z,15.60
2023-04-14T03:11:28.101Z,17.50
2023-04-14T03:13:57.651Z,18.40
2023-04-14T03:16:27.737Z,17.20
2023-04-14T03:18:56.703Z,22.50
2023-04-14T03:21:26.769Z,19.90
2023-04-14T03:23:56.383Z,19.30
2023-04-14T03:26:27.575Z,25.60
2023-04-14T03:28:59.952Z,16.90
2023-04-14T03:31:37.287Z,16.90
2023-04-14T03:34:08.334Z,19.90
2023-04-14T03:36:41.332Z,19.20
2023-04-14T03:39:12.670Z,23.10
2023-04-14T03:41:48.010Z,24.30
2023-04-14T03:44:19.160Z,18.10
2023-04-14T03:46:49.553Z,22.70
2023-04-14T03:49:21.054Z,22.20
2023-04-14T03:51:53.459Z,18.10
2023-04-14T03:54:24.356Z,23.90
2023-04-14T03:56:56.973Z,21.20
2023-04-14T03:59:27.720Z,19.40
2023-04-14T04:01:56.661Z,18.00
2023-04-14T04:04:25.970Z,18.00
2023-04-14T04:06:54.139Z,17.90
2023-04-14T04:09:24.756Z,23.90
2023-04-14T04:11:53.997Z,24.90
2023-04-14T04:14:25.529Z,16.90
2023-04-14T04:16:56.644Z,19.60
2023-04-14T04:19:26.377Z,20.50
2023-04-14T04:22:00.069Z,16.10
2023-04-14T04:24:32.690Z,19.80
2023-04-14T04:27:01.438Z,15.90
2023-04-14T04:29:32.143Z,18.50
2023-04-14T04:32:01.167Z,20.70
2023-04-14T04:34:32.428Z,21.00
2023-04-14T04:37:02.261Z,17.90
2023-04-14T04:39:30.813Z,18.80
2023-04-14T04:42:07.084Z,19.20
2023-04-14T04:44:35.329Z,22.00
2023-04-14T04:47:04.183Z,17.10
2023-04-14T04:49:32.065Z,18.00
2023-04-14T04:52:03.676Z,19.00
2023-04-14T04:54:31.692Z,21.60
2023-04-14T04:57:00.094Z,15.50
2023-04-14T04:59:28.112Z,15.00
2023-04-14T05:01:56.488Z,16.10
2023-04-14T05:04:24.768Z,14.10
2023-04-14T05:06:52.658Z,16.90
2023-04-14T05:09:20.507Z,16.70
2023-04-14T05:11:48.665Z,15.30
2023-04-14T05:14:16.580Z,19.00
2023-04-14T05:16:44.460Z,15.70
2023-04-14T05:19:12.369Z,13.30
2023-04-14T05:21:40.538Z,11.90
2023-04-14T05:24:09.078Z,12.70
2023-04-14T05:26:57.875Z,15.20
2023-04-14T05:29:24.871Z,24.20
2023-04-14T05:31:52.873Z,15.40
2023-04-14T05:34:20.787Z,14.50
2023-04-14T05:36:48.758Z,11.70
2023-04-14T05:39:16.762Z,9.90
2023-04-14T05:41:44.784Z,14.70
2023-04-14T05:44:14.914Z,9.90
2023-04-14T05:46:42.913Z,12.60
2023-04-14T05:49:10.889Z,8.30
2023-04-14T05:51:39.960Z,10.20
2023-04-14T05:54:08.144Z,10.50
2023-04-14T05:56:36.499Z,11.80
2023-04-14T05:59:04.365Z,11.40
2023-04-14T06:01:32.375Z,9.50
2023-04-14T06:04:00.906Z,12.60
2023-04-14T06:06:29.509Z,13.10
2023-04-14T06:08:57.435Z,11.90
2023-04-14T06:11:25.617Z,8.20
2023-04-14T06:13:53.580Z,13.30
2023-04-14T06:16:21.605Z,10.70
2023-04-14T06:18:49.614Z,10.60
2023-04-14T06:21:17.588Z,9.40
2023-04-14T06:23:45.640Z,8.70
2023-04-14T06:26:14.007Z,11.30
2023-04-14T06:28:43.957Z,12.50
2023-04-14T06:31:14.256Z,13.40
2023-04-14T06:33:42.330Z,14.30
2023-04-14T06:36:10.607Z,10.60
2023-04-14T06:38:38.909Z,12.40
2023-04-14T06:41:07.267Z,13.10
2023-04-14T06:43:35.305Z,13.80
2023-04-14T06:46:03.212Z,11.30
2023-04-14T06:48:31.638Z,8.40
2023-04-14T06:50:59.707Z,11.20
2023-04-14T06:53:27.657Z,12.30
2023-04-14T06:56:02.290Z,12.90
2023-04-14T06:58:30.426Z,13.70
2023-04-14T07:01:03.240Z,15.00
2023-04-14T07:03:31.762Z,9.80
2023-04-14T07:06:08.475Z,18.50
2023-04-14T07:08:36.596Z,13.20
2023-04-14T07:11:07.177Z,15.20
2023-04-14T07:13:36.285Z,11.10
2023-04-14T07:16:06.665Z,14.20
2023-04-14T07:18:36.219Z,23.00
2023-04-14T07:21:04.460Z,14.10
2023-04-14T07:23:33.885Z,9.80
2023-04-14T07:26:02.259Z,7.50
2023-04-14T07:28:30.264Z,11.30
2023-04-14T07:30:58.368Z,6.80
2023-04-14T07:33:30.563Z,8.70
2023-04-14T07:36:03.553Z,9.90
2023-04-14T07:38:33.220Z,8.70
2023-04-14T07:41:06.544Z,8.90
2023-04-14T07:43:37.553Z,7.90
2023-04-14T07:46:07.876Z,14.50
2023-04-14T07:48:37.459Z,9.90
2023-04-14T07:51:06.533Z,14.20
2023-04-14T07:53:40.630Z,7.30
2023-04-14T07:56:09.448Z,9.10
2023-04-14T07:58:38.062Z,6.40
2023-04-14T08:01:06.720Z,7.30
2023-04-14T08:03:38.026Z,7.20
2023-04-14T08:06:07.683Z,9.40
2023-04-14T08:08:36.219Z,6.70
2023-04-14T08:11:04.420Z,8.40
2023-04-14T08:13:32.376Z,8.20
2023-04-14T08:16:00.874Z,8.60
2023-04-14T08:18:29.120Z,9.20
2023-04-14T08:20:57.104Z,8.40
2023-04-14T08:23:25.148Z,11.20
2023-04-14T08:25:53.391Z,12.70
2023-04-14T08:28:21.394Z,6.80
2023-04-14T08:30:49.532Z,5.80
2023-04-14T08:33:17.627Z,9.90
2023-04-14T08:35:45.900Z,8.90
2023-04-14T08:38:24.608Z,6.60
2023-04-14T08:40:59.102Z,7.10
2023-04-14T08:43:27.326Z,10.80
2023-04-14T08:45:58.259Z,6.60
2023-04-14T08:48:30.840Z,11.10
2023-04-14T08:51:07.300Z,9.50
2023-04-14T08:53:43.016Z,11.30
2023-04-14T08:56:14.255Z,10.70
2023-04-14T08:58:43.227Z,11.90
2023-04-14T09:01:11.502Z,8.60
2023-04-14T09:03:41.175Z,6.60
2023-04-14T09:06:09.687Z,13.30
2023-04-14T09:08:38.473Z,7.80
2023-04-14T09:11:06.545Z,8.70
2023-04-14T09:13:36.158Z,6.60
2023-04-14T09:16:04.382Z,11.70
2023-04-14T09:18:34.470Z,8.10
2023-04-14T09:21:49.628Z,9.40
2023-04-14T09:23:52.674Z,9.00
2023-04-14T09:26:20.894Z,9.20
2023-04-14T09:28:48.769Z,11.00
2023-04-14T09:31:16.898Z,7.00
2023-04-14T09:33:52.891Z,6.80
2023-04-14T09:36:23.542Z,9.00
2023-04-14T09:38:51.990Z,12.20
2023-04-14T09:41:26.327Z,7.40
2023-04-14T09:43:54.249Z,9.90
2023-04-14T09:46:22.667Z,8.00
2023-04-14T09:48:56.147Z,10.70
2023-04-14T09:51:28.849Z,17.40
2023-04-14T09:54:03.099Z,10.40
2023-04-14T09:56:31.606Z,10.10
2023-04-14T09:59:01.441Z,14.00
2023-04-14T10:01:32.428Z,8.50
2023-04-14T10:04:02.329Z,9.30
2023-04-14T10:06:33.133Z,7.50
2023-04-14T10:09:02.036Z,12.00
2023-04-14T10:11:35.426Z,7.10
2023-04-14T10:14:05.524Z,8.10
2023-04-14T10:16:34.543Z,9.90
2023-04-14T10:19:03.916Z,9.60
2023-04-14T10:21:32.922Z,15.40
2023-04-14T10:24:01.663Z,6.50
2023-04-14T10:26:30.469Z,9.60
2023-04-14T10:28:59.484Z,5.30
2023-04-14T10:31:32.788Z,9.10
2023-04-14T10:34:14.926Z,8.10
2023-04-14T10:36:44.005Z,8.90
2023-04-14T10:39:13.004Z,6.00
2023-04-14T10:41:43.920Z,9.20
2023-04-14T10:44:24.927Z,5.90
2023-04-14T10:46:54.340Z,11.40
2023-04-14T10:49:25.861Z,10.30
2023-04-14T10:51:53.860Z,6.60
2023-04-14T10:54:22.078Z,7.60
2023-04-14T10:57:12.800Z,10.80
2023-04-14T10:59:42.636Z,8.40
2023-04-14T11:02:28.648Z,10.70
2023-04-14T11:05:11.861Z,11.00
2023-04-14T11:07:54.616Z,8.10
2023-04-14T11:10:23.038Z,8.60
2023-04-14T11:12:57.901Z,10.50
2023-04-14T11:15:57.436Z,9.20
2023-04-14T11:18:29.142Z,11.30
2023-04-14T11:21:07.665Z,6.80
2023-04-14T11:23:37.439Z,12.90
2023-04-14T11:26:06.746Z,8.30
2023-04-14T11:28:36.294Z,9.60
2023-04-14T11:31:10.843Z,8.80
2023-04-14T11:33:41.816Z,9.80
2023-04-14T11:36:13.102Z,12.20
2023-04-14T11:38:42.988Z,10.50
2023-04-14T11:41:14.197Z,8.70
2023-04-14T11:43:46.754Z,12.90
2023-04-14T11:46:16.467Z,8.90
2023-04-14T11:48:44.611Z,13.20
2023-04-14T11:51:12.732Z,8.60
2023-04-14T11:53:41.520Z,9.10
2023-04-14T11:56:11.686Z,14.00
2023-04-14T11:58:39.707Z,9.90
2023-04-14T12:01:14.505Z,7.20
2023-04-14T12:03:43.256Z,12.50
2023-04-14T12:06:11.606Z,6.70
2023-04-14T12:08:39.654Z,8.90
2023-04-14T12:11:17.678Z,9.30
2023-04-14T12:13:47.347Z,8.60
2023-04-14T12:16:17.067Z,10.70
2023-04-14T12:18:45.110Z,11.80
2023-04-14T12:21:18.717Z,7.70
2023-04-14T12:23:51.086Z,10.40
2023-04-14T12:26:20.627Z,11.20
2023-04-14T12:28:57.232Z,15.10
2023-04-14T12:31:30.138Z,6.80
2023-04-14T12:34:03.830Z,11.50
2023-04-14T12:36:45.383Z,11.50
2023-04-14T12:39:17.994Z,8.20
2023-04-14T12:41:47.014Z,8.90
2023-04-14T12:44:16.865Z,8.00
2023-04-14T12:46:52.932Z,11.10
2023-04-14T12:49:37.812Z,13.70
2023-04-14T12:52:08.457Z,9.90
2023-04-14T12:54:52.216Z,9.50
2023-04-14T12:57:22.065Z,6.00
2023-04-14T12:59:50.912Z,11.30
2023-04-14T13:02:19.188Z,11.70
2023-04-14T13:04:47.425Z,12.70
2023-04-14T13:07:15.452Z,10.40
2023-04-14T13:09:43.720Z,10.60
2023-04-14T13:12:11.800Z,8.90
2023-04-14T13:14:39.795Z,16.30
2023-04-14T13:17:07.910Z,10.70
2023-04-14T13:19:36.065Z,9.40
2023-04-14T13:22:03.993Z,9.40
2023-04-14T13:24:32.535Z,15.20
2023-04-14T13:27:01.106Z,12.80
2023-04-14T13:29:29.087Z,11.20
2023-04-14T13:31:57.088Z,12.10
2023-04-14T13:34:25.088Z,14.40
2023-04-14T13:36:53.096Z,11.50
2023-04-14T13:39:21.400Z,10.70
2023-04-14T13:41:49.585Z,12.30
2023-04-14T13:44:18.628Z,12.80
2023-04-14T13:46:46.667Z,15.40
2023-04-14T13:49:14.836Z,13.10
2023-04-14T13:51:43.069Z,11.40
2023-04-14T13:54:10.966Z,10.90
2023-04-14T13:56:38.974Z,8.90
2023-04-14T13:59:06.972Z,8.50
2023-04-14T14:01:34.826Z,10.40
2023-04-14T14:04:03.036Z,12.40
2023-04-14T14:06:31.437Z,15.30
2023-04-14T14:09:06.058Z,16.00
2023-04-14T14:14:02.881Z,10.00
2023-04-14T14:16:36.783Z,8.90
2023-04-14T14:19:10.090Z,14.10
2023-04-14T14:21:38.105Z,14.30
2023-04-14T14:24:06.369Z,19.10
2023-04-14T14:26:34.262Z,15.80
2023-04-14T14:29:02.280Z,15.20
2023-04-14T14:31:30.328Z,13.40
2023-04-14T14:33:58.346Z,10.70
2023-04-14T14:36:27.624Z,16.30
2023-04-14T14:38:55.657Z,8.30
2023-04-14T14:41:23.619Z,12.70
2023-04-14T14:43:51.471Z,10.30
2023-04-14T14:46:19.390Z,6.70
2023-04-14T14:48:47.403Z,6.30
2023-04-14T14:51:15.706Z,10.20
2023-04-14T14:53:43.410Z,8.10
2023-04-14T14:56:11.288Z,9.20
2023-04-14T14:58:39.120Z,9.10
2023-04-14T15:01:07.461Z,9.00
2023-04-14T15:03:35.676Z,10.00
2023-04-14T15:06:04.075Z,7.90
2023-04-14T15:08:31.940Z,8.20
2023-04-14T15:10:59.882Z,8.50
2023-04-14T15:13:28.274Z,8.10
2023-04-14T15:15:57.790Z,7.30
2023-04-14T15:18:26.008Z,7.40
2023-04-14T15:20:54.612Z,5.60
2023-04-14T15:23:23.036Z,7.60
2023-04-14T15:25:51.096Z,4.70
2023-04-14T15:28:19.068Z,7.00
2023-04-14T15:30:46.966Z,6.30
2023-04-14T15:33:14.882Z,7.40
2023-04-14T15:35:42.906Z,7.40
2023-04-14T15:38:11.039Z,5.40
2023-04-14T15:40:40.062Z,4.20
2023-04-14T15:43:08.102Z,6.20
2023-04-14T15:45:36.054Z,6.50
2023-04-14T15:48:04.184Z,3.30
2023-04-14T15:50:32.150Z,4.20
2023-04-14T15:53:00.035Z,6.60
2023-04-14T15:55:28.484Z,5.80
2023-04-14T15:57:56.534Z,4.20
2023-04-14T16:00:24.538Z,2.80
2023-04-14T16:02:52.498Z,5.90
2023-04-14T16:05:20.690Z,3.80
2023-04-14T16:07:48.865Z,2.80
2023-04-14T16:10:16.822Z,5.80
2023-04-14T16:12:45.168Z,4.30
2023-04-14T16:15:12.999Z,7.20
2023-04-14T16:17:42.377Z,4.50
2023-04-14T16:20:12.494Z,5.60
2023-04-14T16:22:40.573Z,7.40
2023-04-14T16:25:08.925Z,5.80
2023-04-14T16:27:36.839Z,5.80
2023-04-14T16:30:05.613Z,4.50
2023-04-14T16:32:33.579Z,3.70
2023-04-14T16:35:01.993Z,6.30
2023-04-14T16:37:30.146Z,5.80
2023-04-14T16:39:58.244Z,3.90
2023-04-14T16:42:26.571Z,7.10
2023-04-14T16:44:56.241Z,5.60
2023-04-14T16:47:24.184Z,5.00
2023-04-14T16:49:52.971Z,6.40
2023-04-14T16:52:20.963Z,7.60
2023-04-14T16:54:49.113Z,6.10
2023-04-14T16:57:17.098Z,7.60
2023-04-14T16:59:46.334Z,4.40
2023-04-14T17:02:14.521Z,2.70
2023-04-14T17:04:45.403Z,4.70
2023-04-14T17:07:13.500Z,5.70
2023-04-14T17:09:44.687Z,5.20
2023-04-14T17:12:12.605Z,5.70
2023-04-14T17:14:40.661Z,4.60
2023-04-14T17:17:08.676Z,4.50
2023-04-14T17:19:36.588Z,4.70
2023-04-14T17:22:04.601Z,5.50
2023-04-14T17:24:32.840Z,3.70
2023-04-14T17:27:00.767Z,7.50
2023-04-14T17:29:29.704Z,7.20
2023-04-14T17:31:57.813Z,8.70
2023-04-14T17:34:26.404Z,7.20
2023-04-14T17:36:54.504Z,6.30
2023-04-14T17:39:26.954Z,6.50
2023-04-14T17:41:56.362Z,8.30
2023-04-14T17:44:34.188Z,8.70
2023-04-14T17:47:04.931Z,9.80
2023-04-14T17:49:34.220Z,10.90
2023-04-14T17:52:17.694Z,11.90
2023-04-14T17:54:46.847Z,7.90
2023-04-14T17:57:15.008Z,8.30
2023-04-14T17:59:45.014Z,9.90
2023-04-14T18:02:14.321Z,8.50
2023-04-14T18:04:42.581Z,8.80
2023-04-14T18:07:10.473Z,8.60
2023-04-14T18:09:38.387Z,8.10
2023-04-14T18:12:06.317Z,9.00
2023-04-14T18:14:34.276Z,6.20
2023-04-14T18:17:02.294Z,6.40
2023-04-14T18:19:30.384Z,8.90
2023-04-14T18:21:58.198Z,7.60
2023-04-14T18:26:59.271Z,5.60
2023-04-14T18:29:27.736Z,11.10
2023-04-14T18:31:56.689Z,10.10
2023-04-14T18:34:24.802Z,13.10
2023-04-14T18:36:52.809Z,10.30
2023-04-14T18:39:20.829Z,9.50
2023-04-14T18:41:49.172Z,12.20
2023-04-14T18:44:17.635Z,14.10
2023-04-14T18:46:45.611Z,30.90
2023-04-14T18:49:13.837Z,36.60
2023-04-14T18:51:41.683Z,24.40
2023-04-14T18:54:10.679Z,14.70
2023-04-14T18:56:39.425Z,11.60
2023-04-14T18:59:10.171Z,9.30
2023-04-14T19:01:38.152Z,16.20
2023-04-14T19:04:08.051Z,9.40
2023-04-14T19:06:36.741Z,12.30
2023-04-14T19:09:05.228Z,11.40
2023-04-14T19:11:36.142Z,11.80
2023-04-14T19:14:04.824Z,11.80
2023-04-14T19:16:33.732Z,16.30
2023-04-14T19:19:02.249Z,10.20
2023-04-14T19:21:30.858Z,10.50
2023-04-14T19:23:58.759Z,14.40
2023-04-14T19:26:27.772Z,17.70
2023-04-14T19:28:58.916Z,11.80
2023-04-14T19:31:28.583Z,15.80
2023-04-14T19:33:58.685Z,14.20
2023-04-14T19:36:26.745Z,21.30
2023-04-14T19:38:54.653Z,18.70
2023-04-14T19:41:22.658Z,18.80
2023-04-14T19:43:52.242Z,15.40
2023-04-14T19:46:20.183Z,19.80
2023-04-14T19:48:48.405Z,15.80
2023-04-14T19:51:16.354Z,19.70
2023-04-14T19:53:46.566Z,19.20
2023-04-14T19:56:14.612Z,20.10
2023-04-14T19:58:43.687Z,22.50
2023-04-14T20:01:11.751Z,19.30
2023-04-14T20:04:07.812Z,16.60
2023-04-14T20:06:29.672Z,20.60
2023-04-14T20:08:57.499Z,21.00
2023-04-14T20:11:28.241Z,17.70
2023-04-14T20:13:56.314Z,18.80
2023-04-14T20:16:24.677Z,19.50
2023-04-14T20:18:52.682Z,19.40
2023-04-14T20:21:20.636Z,14.10
2023-04-14T20:23:48.911Z,14.00
2023-04-14T20:26:17.434Z,17.20
2023-04-14T20:28:45.742Z,16.00
2023-04-14T20:31:13.857Z,20.20
2023-04-14T20:33:42.233Z,16.70
2023-04-14T20:36:10.270Z,19.00
2023-04-14T20:38:38.240Z,18.50
2023-04-14T20:41:06.251Z,16.50
2023-04-14T20:43:34.516Z,14.00
2023-04-14T20:46:04.271Z,16.60
2023-04-14T20:48:32.392Z,18.50
2023-04-14T20:51:01.595Z,14.90
2023-04-14T20:53:30.237Z,18.90
2023-04-14T20:55:58.247Z,19.00
2023-04-14T20:58:26.129Z,19.50
2023-04-14T21:00:54.012Z,15.20
2023-04-14T21:03:24.108Z,18.80
2023-04-14T21:05:52.239Z,20.30
2023-04-14T21:08:20.159Z,20.00
2023-04-14T21:11:15.566Z,18.60
2023-04-14T21:15:28.938Z,19.90
2023-04-14T21:16:24.319Z,19.10
2023-04-14T21:18:52.289Z,22.50
2023-04-14T21:21:20.206Z,25.80
2023-04-14T21:23:48.212Z,25.80
2023-04-14T21:26:16.819Z,24.30
2023-04-14T21:28:44.853Z,24.60
2023-04-14T21:31:12.891Z,23.60
2023-04-14T21:33:42.040Z,22.80
2023-04-14T21:36:10.988Z,20.20
2023-04-14T21:38:39.405Z,20.70
2023-04-14T21:41:10.954Z,20.40
2023-04-14T21:43:38.916Z,18.80
2023-04-14T21:46:07.398Z,21.90
2023-04-14T21:48:35.856Z,18.90
2023-04-14T21:51:04.034Z,20.20
2023-04-14T21:53:32.545Z,25.20
2023-04-14T21:56:10.307Z,19.90
2023-04-14T21:58:40.462Z,20.00
2023-04-14T22:01:10.541Z,24.70
2023-04-14T22:03:40.860Z,19.50
2023-04-14T22:06:11.496Z,19.20
2023-04-14T22:08:40.681Z,17.50
2023-04-14T22:11:08.803Z,14.50
2023-04-14T22:13:36.734Z,14.90
2023-04-14T22:16:05.410Z,18.70
2023-04-14T22:18:33.397Z,15.40
2023-04-14T22:21:01.724Z,13.30
2023-04-14T22:23:29.867Z,12.60
2023-04-14T22:25:58.435Z,15.10
2023-04-14T22:28:27.396Z,12.80
2023-04-14T22:30:55.409Z,13.60
2023-04-14T22:33:23.409Z,14.50
2023-04-14T22:35:51.936Z,17.10
2023-04-14T22:38:19.816Z,17.70
2023-04-14T22:40:49.290Z,12.80
2023-04-14T22:43:18.679Z,11.00
2023-04-14T22:45:47.215Z,14.80
2023-04-14T22:48:15.138Z,11.60
2023-04-14T22:50:43.137Z,11.90
2023-04-14T22:53:10.978Z,11.30
2023-04-14T22:55:38.882Z,14.40
2023-04-14T22:58:07.359Z,13.20
2023-04-14T23:00:35.289Z,17.00
2023-04-14T23:03:03.385Z,13.30
2023-04-14T23:05:31.299Z,12.40
2023-04-14T23:07:59.444Z,15.70
2023-04-14T23:10:27.686Z,12.40
2023-04-14T23:12:55.645Z,16.40
2023-04-14T23:15:23.697Z,12.90
2023-04-14T23:17:51.816Z,10.50
2023-04-14T23:20:20.671Z,11.90
2023-04-14T23:22:48.663Z,11.20
2023-04-14T23:25:17.662Z,9.10
2023-04-14T23:27:45.658Z,12.20
2023-04-14T23:30:14.199Z,11.00
2023-04-14T23:32:42.253Z,12.60
2023-04-14T23:35:10.444Z,9.70
2023-04-14T23:37:39.074Z,9.90
2023-04-14T23:40:08.312Z,8.90
2023-04-14T23:42:36.219Z,11.00
2023-04-14T23:45:05.502Z,10.40
2023-04-14T23:47:33.559Z,10.80
2023-04-14T23:50:01.996Z,11.70
2023-04-14T23:52:29.953Z,11.80
2023-04-14T23:54:57.897Z,12.90
2023-04-14T23:57:26.855Z,9.80
2023-04-14T23:59:54.727Z,9.70
